Ana Sayfa
METAR-TAF:

METAR-TAF

Havaalanları :

Wellsville Municipal Airport (Tarantine Field)

Wellsville, New York, Amerika Birleşik Devletleri

Enlem: 42-06-27N, Boylam: 077-59-04W, yükseklik: 647 m

Güncel hava durumu gözlemi

Rapor saat 05:56 UTC de 51 dakika önce yapıldı.
Rüzgar batı/güneybatıdan 10 kt
Sıcaklık -9°C
Nem 85%
Basınç 1006 hPa
Görüş mesafesi: 2.4 km
1700 ft yükseklikte çok bulutlu
hafif kar, Pus

METAR: KELZ 290556Z AUTO 24010KT 1 1/2SM -SN BR OVC017 M09/M11 A2970 RMK AO2 SLP093 P0000 60000 T10891111 11078 21089 57007

Saat: 01:47 (06:47 UTC)


TAF: eksik

4.000'den fazla havaalanı için hava durumu gözlemleri ve tahminleri (METAR ve TAF raporları).

Kullanılabilir istasyonlar harita üzerinde sarı ve kırmızı noktalarla gösterilir.

İstasyonun adını görmek için fareyi noktanın üzerinde gezdirin.

Sonrasında hava gözlem ve tahminlerini görmek için tıklayın.

Haritayı değiştirmek için: yaklaştırmak için siyah artı işaretli yeşil düğmeye ve uzaklaştırmak için de eksi işaretli düğmeye hızla tıklayın; bitişik haritalar için yeşil okları kullanın.


METAR-TAF: